sensor_id;sensor_type;location;lat;lon;timestamp;temperature;humidity
7970;DHT22;4030;52.362;9.206;2022-12-17T00:01:52;0.10;64.00
7970;DHT22;4030;52.362;9.206;2022-12-17T00:04:37;0.00;64.00
7970;DHT22;4030;52.362;9.206;2022-12-17T00:07:21;0.10;64.00
7970;DHT22;4030;52.362;9.206;2022-12-17T00:10:06;0.10;64.30
7970;DHT22;4030;52.362;9.206;2022-12-17T00:12:50;0.10;62.70
7970;DHT22;4030;52.362;9.206;2022-12-17T00:15:35;0.10;63.40
7970;DHT22;4030;52.362;9.206;2022-12-17T00:18:19;-0.20;63.90
7970;DHT22;4030;52.362;9.206;2022-12-17T00:23:49;-0.10;62.70
7970;DHT22;4030;52.362;9.206;2022-12-17T00:26:33;0.20;64.30
7970;DHT22;4030;52.362;9.206;2022-12-17T00:32:02;-0.20;64.00
7970;DHT22;4030;52.362;9.206;2022-12-17T00:34:47;0.00;64.00
7970;DHT22;4030;52.362;9.206;2022-12-17T00:37:31;-0.30;62.80
7970;DHT22;4030;52.362;9.206;2022-12-17T00:40:16;-0.30;63.30
7970;DHT22;4030;52.362;9.206;2022-12-17T00:43:05;-0.10;64.00
7970;DHT22;4030;52.362;9.206;2022-12-17T00:45:54;-0.20;63.90
7970;DHT22;4030;52.362;9.206;2022-12-17T00:48:39;-0.60;63.60
7970;DHT22;4030;52.362;9.206;2022-12-17T00:51:23;-0.20;64.00
7970;DHT22;4030;52.362;9.206;2022-12-17T00:54:08;-0.10;64.10
7970;DHT22;4030;52.362;9.206;2022-12-17T00:56:52;-0.20;64.00
7970;DHT22;4030;52.362;9.206;2022-12-17T00:59:37;-0.20;64.10
7970;DHT22;4030;52.362;9.206;2022-12-17T01:02:21;-0.40;59.60
7970;DHT22;4030;52.362;9.206;2022-12-17T01:07:50;-0.40;63.80
7970;DHT22;4030;52.362;9.206;2022-12-17T01:10:36;-0.30;64.20
7970;DHT22;4030;52.362;9.206;2022-12-17T01:13:21;-0.50;63.50
7970;DHT22;4030;52.362;9.206;2022-12-17T01:16:11;-0.50;64.00
7970;DHT22;4030;52.362;9.206;2022-12-17T01:18:56;-0.60;59.20
7970;DHT22;4030;52.362;9.206;2022-12-17T01:21:41;-0.60;63.70
7970;DHT22;4030;52.362;9.206;2022-12-17T01:24:27;-0.80;63.60
7970;DHT22;4030;52.362;9.206;2022-12-17T01:27:11;-0.70;63.60
7970;DHT22;4030;52.362;9.206;2022-12-17T01:29:55;-0.50;63.80
7970;DHT22;4030;52.362;9.206;2022-12-17T01:32:39;-0.30;64.00
7970;DHT22;4030;52.362;9.206;2022-12-17T01:35:23;-0.70;63.60
7970;DHT22;4030;52.362;9.206;2022-12-17T01:38:13;-0.70;58.80
7970;DHT22;4030;52.362;9.206;2022-12-17T01:40:59;-0.50;63.50
7970;DHT22;4030;52.362;9.206;2022-12-17T01:43:43;-1.00;63.20
7970;DHT22;4030;52.362;9.206;2022-12-17T01:46:31;-0.50;63.60
7970;DHT22;4030;52.362;9.206;2022-12-17T01:49:20;-0.80;58.60
7970;DHT22;4030;52.362;9.206;2022-12-17T01:52:05;-0.90;63.30
7970;DHT22;4030;52.362;9.206;2022-12-17T01:54:50;-1.10;63.00
7970;DHT22;4030;52.362;9.206;2022-12-17T01:57:34;-0.70;63.40
7970;DHT22;4030;52.362;9.206;2022-12-17T02:03:03;-0.70;61.20
7970;DHT22;4030;52.362;9.206;2022-12-17T02:05:57;-0.80;61.20
7970;DHT22;4030;52.362;9.206;2022-12-17T02:12:03;-1.10;62.40
7970;DHT22;4030;52.362;9.206;2022-12-17T02:15:00;-1.00;62.40
7970;DHT22;4030;52.362;9.206;2022-12-17T02:17:53;-1.30;62.00
7970;DHT22;4030;52.362;9.206;2022-12-17T02:20:47;-0.90;62.40
7970;DHT22;4030;52.362;9.206;2022-12-17T02:27:01;-0.80;62.40
7970;DHT22;4030;52.362;9.206;2022-12-17T02:29:50;-1.10;58.70
7970;DHT22;4030;52.362;9.206;2022-12-17T02:32:40;-1.00;62.50
7970;DHT22;4030;52.362;9.206;2022-12-17T02:35:44;-1.10;62.20
7970;DHT22;4030;52.362;9.206;2022-12-17T02:38:31;-1.10;57.80
7970;DHT22;4030;52.362;9.206;2022-12-17T02:41:26;-1.30;62.00
7970;DHT22;4030;52.362;9.206;2022-12-17T02:44:15;-1.30;61.20
7970;DHT22;4030;52.362;9.206;2022-12-17T02:47:04;-0.90;60.20
7970;DHT22;4030;52.362;9.206;2022-12-17T02:52:39;-1.20;62.00
7970;DHT22;4030;52.362;9.206;2022-12-17T02:55:26;-1.30;61.90
7970;DHT22;4030;52.362;9.206;2022-12-17T02:58:10;-1.20;62.00
7970;DHT22;4030;52.362;9.206;2022-12-17T03:00:54;-1.30;61.90
7970;DHT22;4030;52.362;9.206;2022-12-17T03:03:38;-1.20;61.90
7970;DHT22;4030;52.362;9.206;2022-12-17T03:06:22;-1.50;61.30
7970;DHT22;4030;52.362;9.206;2022-12-17T03:09:06;-1.40;61.50
7970;DHT22;4030;52.362;9.206;2022-12-17T03:11:50;-1.10;61.80
7970;DHT22;4030;52.362;9.206;2022-12-17T03:14:34;-1.40;61.50
7970;DHT22;4030;52.362;9.206;2022-12-17T03:17:18;-1.60;61.40
7970;DHT22;4030;52.362;9.206;2022-12-17T03:20:02;-1.10;61.90
7970;DHT22;4030;52.362;9.206;2022-12-17T03:22:47;-1.20;61.30
7970;DHT22;4030;52.362;9.206;2022-12-17T03:25:31;-1.40;59.20
7970;DHT22;4030;52.362;9.206;2022-12-17T03:28:15;-1.30;58.40
7970;DHT22;4030;52.362;9.206;2022-12-17T03:30:59;-1.60;58.80
7970;DHT22;4030;52.362;9.206;2022-12-17T03:33:44;-1.50;59.40
7970;DHT22;4030;52.362;9.206;2022-12-17T03:39:14;-1.20;59.70
7970;DHT22;4030;52.362;9.206;2022-12-17T03:41:59;-1.10;59.40
7970;DHT22;4030;52.362;9.206;2022-12-17T03:50:12;-1.50;61.60
7970;DHT22;4030;52.362;9.206;2022-12-17T03:52:59;-1.30;61.80
7970;DHT22;4030;52.362;9.206;2022-12-17T03:58:29;-1.60;61.60
7970;DHT22;4030;52.362;9.206;2022-12-17T04:01:13;-1.40;62.10
7970;DHT22;4030;52.362;9.206;2022-12-17T04:03:57;-1.40;61.80
7970;DHT22;4030;52.362;9.206;2022-12-17T04:06:40;-1.40;60.10
7970;DHT22;4030;52.362;9.206;2022-12-17T04:09:25;-1.10;61.30
7970;DHT22;4030;52.362;9.206;2022-12-17T04:12:09;-1.30;60.20
7970;DHT22;4030;52.362;9.206;2022-12-17T04:14:54;-1.20;62.30
7970;DHT22;4030;52.362;9.206;2022-12-17T04:17:38;-1.40;62.20
7970;DHT22;4030;52.362;9.206;2022-12-17T04:20:22;-1.00;62.70
7970;DHT22;4030;52.362;9.206;2022-12-17T04:23:06;-1.20;62.40
7970;DHT22;4030;52.362;9.206;2022-12-17T04:25:50;-1.20;62.50
7970;DHT22;4030;52.362;9.206;2022-12-17T04:28:34;-1.10;62.40
7970;DHT22;4030;52.362;9.206;2022-12-17T04:31:18;-1.30;62.50
7970;DHT22;4030;52.362;9.206;2022-12-17T04:34:02;-1.40;62.50
7970;DHT22;4030;52.362;9.206;2022-12-17T04:36:46;-1.30;62.60
7970;DHT22;4030;52.362;9.206;2022-12-17T04:39:30;-1.10;61.70
7970;DHT22;4030;52.362;9.206;2022-12-17T04:42:14;-1.20;62.60
7970;DHT22;4030;52.362;9.206;2022-12-17T04:44:58;-1.40;62.40
7970;DHT22;4030;52.362;9.206;2022-12-17T04:47:42;-1.30;62.50
7970;DHT22;4030;52.362;9.206;2022-12-17T04:53:11;-1.30;62.50
7970;DHT22;4030;52.362;9.206;2022-12-17T04:55:55;-1.40;62.50
7970;DHT22;4030;52.362;9.206;2022-12-17T04:58:39;-1.30;62.40
7970;DHT22;4030;52.362;9.206;2022-12-17T05:01:25;-1.60;58.60
7970;DHT22;4030;52.362;9.206;2022-12-17T05:04:09;-1.40;62.40
7970;DHT22;4030;52.362;9.206;2022-12-17T05:06:53;-1.60;62.10
7970;DHT22;4030;52.362;9.206;2022-12-17T05:09:37;-1.50;62.20
7970;DHT22;4030;52.362;9.206;2022-12-17T05:15:07;-1.50;62.20
7970;DHT22;4030;52.362;9.206;2022-12-17T05:17:51;-1.50;62.40
7970;DHT22;4030;52.362;9.206;2022-12-17T05:20:36;-1.40;62.30
7970;DHT22;4030;52.362;9.206;2022-12-17T05:23:20;-1.30;62.30
7970;DHT22;4030;52.362;9.206;2022-12-17T05:26:12;-1.40;62.30
7970;DHT22;4030;52.362;9.206;2022-12-17T05:29:02;-1.30;60.80
7970;DHT22;4030;52.362;9.206;2022-12-17T05:31:48;-1.60;62.00
7970;DHT22;4030;52.362;9.206;2022-12-17T05:37:17;-1.40;61.10
7970;DHT22;4030;52.362;9.206;2022-12-17T05:40:02;-1.50;61.80
7970;DHT22;4030;52.362;9.206;2022-12-17T05:42:57;-1.60;57.40
7970;DHT22;4030;52.362;9.206;2022-12-17T05:45:47;-1.90;61.60
7970;DHT22;4030;52.362;9.206;2022-12-17T05:48:32;-1.80;58.70
7970;DHT22;4030;52.362;9.206;2022-12-17T05:51:17;-1.60;62.10
7970;DHT22;4030;52.362;9.206;2022-12-17T05:54:01;-1.90;61.50
7970;DHT22;4030;52.362;9.206;2022-12-17T05:56:46;-2.00;60.60
7970;DHT22;4030;52.362;9.206;2022-12-17T05:59:30;-1.80;62.20
7970;DHT22;4030;52.362;9.206;2022-12-17T06:02:15;-1.50;62.50
7970;DHT22;4030;52.362;9.206;2022-12-17T06:04:59;-2.00;61.90
7970;DHT22;4030;52.362;9.206;2022-12-17T06:15:56;-1.90;61.50
7970;DHT22;4030;52.362;9.206;2022-12-17T06:18:40;-1.90;61.60
7970;DHT22;4030;52.362;9.206;2022-12-17T06:21:24;-2.00;61.50
7970;DHT22;4030;52.362;9.206;2022-12-17T06:24:09;-2.10;61.50
7970;DHT22;4030;52.362;9.206;2022-12-17T06:26:53;-2.00;61.50
7970;DHT22;4030;52.362;9.206;2022-12-17T06:29:37;-1.90;58.80
7970;DHT22;4030;52.362;9.206;2022-12-17T06:32:21;-1.80;62.10
7970;DHT22;4030;52.362;9.206;2022-12-17T06:35:06;-1.80;62.20
7970;DHT22;4030;52.362;9.206;2022-12-17T06:38:02;-2.10;59.80
7970;DHT22;4030;52.362;9.206;2022-12-17T06:49:01;-2.10;61.50
7970;DHT22;4030;52.362;9.206;2022-12-17T06:51:45;-2.20;60.90
7970;DHT22;4030;52.362;9.206;2022-12-17T06:57:14;-2.40;61.20
7970;DHT22;4030;52.362;9.206;2022-12-17T06:59:58;-2.00;61.60
7970;DHT22;4030;52.362;9.206;2022-12-17T07:02:42;-2.40;61.30
7970;DHT22;4030;52.362;9.206;2022-12-17T07:05:40;-2.30;61.40
7970;DHT22;4030;52.362;9.206;2022-12-17T07:08:24;-2.30;61.50
7970;DHT22;4030;52.362;9.206;2022-12-17T07:13:54;-2.20;56.00
7970;DHT22;4030;52.362;9.206;2022-12-17T07:19:33;-2.10;58.30
7970;DHT22;4030;52.362;9.206;2022-12-17T07:22:17;-2.20;58.40
7970;DHT22;4030;52.362;9.206;2022-12-17T07:25:02;-2.50;59.30
7970;DHT22;4030;52.362;9.206;2022-12-17T07:27:54;-1.90;62.10
7970;DHT22;4030;52.362;9.206;2022-12-17T07:33:23;-2.00;61.90
7970;DHT22;4030;52.362;9.206;2022-12-17T07:36:07;-2.30;61.20
7970;DHT22;4030;52.362;9.206;2022-12-17T07:39:05;-2.50;61.30
7970;DHT22;4030;52.362;9.206;2022-12-17T07:41:49;-2.50;61.10
7970;DHT22;4030;52.362;9.206;2022-12-17T07:44:33;-2.50;61.00
7970;DHT22;4030;52.362;9.206;2022-12-17T07:47:17;-2.40;61.10
7970;DHT22;4030;52.362;9.206;2022-12-17T08:00:59;-2.10;61.50
7970;DHT22;4030;52.362;9.206;2022-12-17T08:03:44;-2.30;61.20
7970;DHT22;4030;52.362;9.206;2022-12-17T08:09:13;-2.60;59.20
7970;DHT22;4030;52.362;9.206;2022-12-17T08:11:57;-2.00;59.50
7970;DHT22;4030;52.362;9.206;2022-12-17T08:17:25;-2.40;60.70
7970;DHT22;4030;52.362;9.206;2022-12-17T08:20:10;-2.40;60.70
7970;DHT22;4030;52.362;9.206;2022-12-17T08:23:01;-2.40;60.50
7970;DHT22;4030;52.362;9.206;2022-12-17T08:25:46;-2.30;60.70
7970;DHT22;4030;52.362;9.206;2022-12-17T08:31:16;-2.40;59.10
7970;DHT22;4030;52.362;9.206;2022-12-17T08:34:00;-2.00;60.90
7970;DHT22;4030;52.362;9.206;2022-12-17T08:36:44;-2.30;60.40
7970;DHT22;4030;52.362;9.206;2022-12-17T08:39:28;-2.10;60.50
7970;DHT22;4030;52.362;9.206;2022-12-17T08:44:57;-2.00;60.40
7970;DHT22;4030;52.362;9.206;2022-12-17T08:47:41;-2.10;60.20
7970;DHT22;4030;52.362;9.206;2022-12-17T08:50:25;-1.80;60.30
7970;DHT22;4030;52.362;9.206;2022-12-17T08:53:09;-1.70;58.20
7970;DHT22;4030;52.362;9.206;2022-12-17T08:55:53;-1.60;60.50
7970;DHT22;4030;52.362;9.206;2022-12-17T08:58:36;-1.10;61.00
7970;DHT22;4030;52.362;9.206;2022-12-17T09:06:50;-1.20;60.70
7970;DHT22;4030;52.362;9.206;2022-12-17T09:09:34;-0.70;60.80
7970;DHT22;4030;52.362;9.206;2022-12-17T09:12:18;-0.20;58.80
7970;DHT22;4030;52.362;9.206;2022-12-17T09:15:02;0.10;54.70
7970;DHT22;4030;52.362;9.206;2022-12-17T09:20:33;3.00;54.30
7970;DHT22;4030;52.362;9.206;2022-12-17T09:23:17;4.70;49.90
7970;DHT22;4030;52.362;9.206;2022-12-17T09:26:01;6.10;47.30
7970;DHT22;4030;52.362;9.206;2022-12-17T09:28:46;7.40;44.30
7970;DHT22;4030;52.362;9.206;2022-12-17T09:31:31;8.40;42.10
7970;DHT22;4030;52.362;9.206;2022-12-17T09:34:16;9.40;39.90
7970;DHT22;4030;52.362;9.206;2022-12-17T09:37:01;9.20;35.40
7970;DHT22;4030;52.362;9.206;2022-12-17T09:39:45;8.70;38.60
7970;DHT22;4030;52.362;9.206;2022-12-17T09:42:43;8.20;39.60
7970;DHT22;4030;52.362;9.206;2022-12-17T09:45:46;9.40;40.00
7970;DHT22;4030;52.362;9.206;2022-12-17T09:49:01;10.70;37.70
7970;DHT22;4030;52.362;9.206;2022-12-17T09:51:48;12.10;34.70
7970;DHT22;4030;52.362;9.206;2022-12-17T09:54:36;13.20;31.90
7970;DHT22;4030;52.362;9.206;2022-12-17T09:57:27;14.30;32.20
7970;DHT22;4030;52.362;9.206;2022-12-17T10:00:21;13.10;31.80
7970;DHT22;4030;52.362;9.206;2022-12-17T10:03:19;12.40;31.90
7970;DHT22;4030;52.362;9.206;2022-12-17T10:06:24;12.00;33.10
7970;DHT22;4030;52.362;9.206;2022-12-17T10:09:13;12.40;34.30
7970;DHT22;4030;52.362;9.206;2022-12-17T10:12:07;12.40;35.20
7970;DHT22;4030;52.362;9.206;2022-12-17T10:20:31;13.30;34.50
7970;DHT22;4030;52.362;9.206;2022-12-17T10:23:30;13.10;34.00
7970;DHT22;4030;52.362;9.206;2022-12-17T10:26:27;13.30;34.00
7970;DHT22;4030;52.362;9.206;2022-12-17T10:29:16;13.90;33.70
7970;DHT22;4030;52.362;9.206;2022-12-17T10:34:58;13.10;35.10
7970;DHT22;4030;52.362;9.206;2022-12-17T10:37:44;12.20;36.80
7970;DHT22;4030;52.362;9.206;2022-12-17T10:40:31;11.30;37.90
7970;DHT22;4030;52.362;9.206;2022-12-17T10:43:30;11.20;39.70
7970;DHT22;4030;52.362;9.206;2022-12-17T10:46:27;10.70;40.60
7970;DHT22;4030;52.362;9.206;2022-12-17T10:49:18;11.70;40.40
7970;DHT22;4030;52.362;9.206;2022-12-17T10:52:29;13.20;37.80
7970;DHT22;4030;52.362;9.206;2022-12-17T10:55:24;14.90;35.20
7970;DHT22;4030;52.362;9.206;2022-12-17T10:58:20;16.10;33.90
7970;DHT22;4030;52.362;9.206;2022-12-17T11:01:09;16.90;32.60
7970;DHT22;4030;52.362;9.206;2022-12-17T11:03:56;17.80;31.30
7970;DHT22;4030;52.362;9.206;2022-12-17T11:06:51;18.60;29.90
7970;DHT22;4030;52.362;9.206;2022-12-17T11:09:43;19.30;29.40
7970;DHT22;4030;52.362;9.206;2022-12-17T11:12:46;19.90;28.60
7970;DHT22;4030;52.362;9.206;2022-12-17T11:15:42;20.20;28.30
7970;DHT22;4030;52.362;9.206;2022-12-17T11:21:48;20.50;27.80
7970;DHT22;4030;52.362;9.206;2022-12-17T11:24:45;20.40;28.10
7970;DHT22;4030;52.362;9.206;2022-12-17T11:27:43;21.20;27.90
7970;DHT22;4030;52.362;9.206;2022-12-17T11:30:33;23.30;26.30
7970;DHT22;4030;52.362;9.206;2022-12-17T11:33:53;25.00;24.40
7970;DHT22;4030;52.362;9.206;2022-12-17T11:40:03;22.80;25.00
7970;DHT22;4030;52.362;9.206;2022-12-17T11:43:02;20.80;27.00
7970;DHT22;4030;52.362;9.206;2022-12-17T11:46:26;19.20;28.60
7970;DHT22;4030;52.362;9.206;2022-12-17T11:49:39;18.80;29.20
7970;DHT22;4030;52.362;9.206;2022-12-17T11:59:02;17.50;30.90
7970;DHT22;4030;52.362;9.206;2022-12-17T12:02:02;17.20;31.40
7970;DHT22;4030;52.362;9.206;2022-12-17T12:05:02;16.70;32.50
7970;DHT22;4030;52.362;9.206;2022-12-17T12:08:20;16.50;33.00
7970;DHT22;4030;52.362;9.206;2022-12-17T12:14:14;15.30;35.20
7970;DHT22;4030;52.362;9.206;2022-12-17T12:17:40;15.30;35.60
7970;DHT22;4030;52.362;9.206;2022-12-17T12:34:15;14.70;37.00
7970;DHT22;4030;52.362;9.206;2022-12-17T12:37:02;14.10;37.60
7970;DHT22;4030;52.362;9.206;2022-12-17T12:43:34;12.80;39.50
7970;DHT22;4030;52.362;9.206;2022-12-17T12:46:47;12.70;40.50
7970;DHT22;4030;52.362;9.206;2022-12-17T12:49:59;12.00;41.10
7970;DHT22;4030;52.362;9.206;2022-12-17T12:52:51;11.50;41.80
7970;DHT22;4030;52.362;9.206;2022-12-17T12:55:40;11.40;42.50
7970;DHT22;4030;52.362;9.206;2022-12-17T13:01:11;10.80;43.60
7970;DHT22;4030;52.362;9.206;2022-12-17T13:03:57;10.70;44.10
7970;DHT22;4030;52.362;9.206;2022-12-17T13:09:28;10.00;44.70
7970;DHT22;4030;52.362;9.206;2022-12-17T13:14:43;9.70;46.20
7970;DHT22;4030;52.362;9.206;2022-12-17T13:19:42;9.30;46.80
7970;DHT22;4030;52.362;9.206;2022-12-17T13:24:46;8.70;47.20
7970;DHT22;4030;52.362;9.206;2022-12-17T13:36:16;8.10;48.30
7970;DHT22;4030;52.362;9.206;2022-12-17T13:39:19;8.20;48.50
7970;DHT22;4030;52.362;9.206;2022-12-17T13:41:54;8.10;49.10
7970;DHT22;4030;52.362;9.206;2022-12-17T13:44:25;8.10;49.40
7970;DHT22;4030;52.362;9.206;2022-12-17T13:49:27;7.30;49.30
7970;DHT22;4030;52.362;9.206;2022-12-17T13:52:05;7.60;50.00
7970;DHT22;4030;52.362;9.206;2022-12-17T13:57:17;7.00;50.20
7970;DHT22;4030;52.362;9.206;2022-12-17T13:59:51;6.90;50.40
7970;DHT22;4030;52.362;9.206;2022-12-17T14:02:30;7.20;50.90
7970;DHT22;4030;52.362;9.206;2022-12-17T14:04:58;7.00;51.00
7970;DHT22;4030;52.362;9.206;2022-12-17T14:07:27;6.90;51.20
7970;DHT22;4030;52.362;9.206;2022-12-17T14:09:53;6.70;51.30
7970;DHT22;4030;52.362;9.206;2022-12-17T14:12:23;6.50;51.10
7970;DHT22;4030;52.362;9.206;2022-12-17T14:17:27;6.10;51.50
7970;DHT22;4030;52.362;9.206;2022-12-17T14:20:06;6.40;51.90
7970;DHT22;4030;52.362;9.206;2022-12-17T14:22:38;6.40;52.10
7970;DHT22;4030;52.362;9.206;2022-12-17T14:25:15;6.10;52.10
7970;DHT22;4030;52.362;9.206;2022-12-17T14:27:52;5.80;52.00
7970;DHT22;4030;52.362;9.206;2022-12-17T14:30:41;5.60;52.00
7970;DHT22;4030;52.362;9.206;2022-12-17T14:33:30;5.80;52.30
7970;DHT22;4030;52.362;9.206;2022-12-17T14:35:59;5.70;52.10
7970;DHT22;4030;52.362;9.206;2022-12-17T14:41:20;5.50;52.60
7970;DHT22;4030;52.362;9.206;2022-12-17T14:44:06;5.40;52.50
7970;DHT22;4030;52.362;9.206;2022-12-17T14:46:33;5.10;52.60
7970;DHT22;4030;52.362;9.206;2022-12-17T14:49:03;5.30;52.50
7970;DHT22;4030;52.362;9.206;2022-12-17T14:51:41;5.40;53.20
7970;DHT22;4030;52.362;9.206;2022-12-17T14:56:57;4.20;51.70
7970;DHT22;4030;52.362;9.206;2022-12-17T14:59:25;4.70;51.80
7970;DHT22;4030;52.362;9.206;2022-12-17T15:01:54;4.60;52.10
7970;DHT22;4030;52.362;9.206;2022-12-17T15:04:20;4.00;52.70
7970;DHT22;4030;52.362;9.206;2022-12-17T15:06:47;4.00;54.80
7970;DHT22;4030;52.362;9.206;2022-12-17T15:21:26;4.30;68.30
7970;DHT22;4030;52.362;9.206;2022-12-17T15:23:51;4.30;67.80
7970;DHT22;4030;52.362;9.206;2022-12-17T15:31:12;4.30;65.30
7970;DHT22;4030;52.362;9.206;2022-12-17T15:33:39;4.00;65.40
7970;DHT22;4030;52.362;9.206;2022-12-17T15:36:06;4.00;65.00
7970;DHT22;4030;52.362;9.206;2022-12-17T15:38:32;3.90;64.70
7970;DHT22;4030;52.362;9.206;2022-12-17T15:41:02;3.80;63.50
7970;DHT22;4030;52.362;9.206;2022-12-17T15:56:02;3.60;61.00
7970;DHT22;4030;52.362;9.206;2022-12-17T15:58:29;3.80;62.10
7970;DHT22;4030;52.362;9.206;2022-12-17T16:00:55;3.30;61.30
7970;DHT22;4030;52.362;9.206;2022-12-17T16:05:47;3.60;60.70
7970;DHT22;4030;52.362;9.206;2022-12-17T16:08:12;3.60;60.40
7970;DHT22;4030;52.362;9.206;2022-12-17T16:10:38;3.20;59.70
7970;DHT22;4030;52.362;9.206;2022-12-17T16:13:04;3.00;59.20
7970;DHT22;4030;52.362;9.206;2022-12-17T16:15:30;3.30;59.30
7970;DHT22;4030;52.362;9.206;2022-12-17T16:17:56;3.00;58.70
7970;DHT22;4030;52.362;9.206;2022-12-17T16:20:22;3.20;58.30
7970;DHT22;4030;52.362;9.206;2022-12-17T16:27:41;3.10;58.70
7970;DHT22;4030;52.362;9.206;2022-12-17T16:30:07;2.70;58.50
7970;DHT22;4030;52.362;9.206;2022-12-17T16:32:35;3.00;58.70
7970;DHT22;4030;52.362;9.206;2022-12-17T16:35:01;2.70;58.40
7970;DHT22;4030;52.362;9.206;2022-12-17T16:37:29;2.90;58.40
7970;DHT22;4030;52.362;9.206;2022-12-17T16:42:20;2.80;57.70
7970;DHT22;4030;52.362;9.206;2022-12-17T16:54:31;2.50;56.80
7970;DHT22;4030;52.362;9.206;2022-12-17T16:56:58;2.40;58.20
7970;DHT22;4030;52.362;9.206;2022-12-17T17:01:51;2.40;56.80
7970;DHT22;4030;52.362;9.206;2022-12-17T17:04:19;2.40;57.60
7970;DHT22;4030;52.362;9.206;2022-12-17T17:06:48;2.20;58.40
7970;DHT22;4030;52.362;9.206;2022-12-17T17:09:18;2.40;58.50
7970;DHT22;4030;52.362;9.206;2022-12-17T17:11:44;2.00;58.20
7970;DHT22;4030;52.362;9.206;2022-12-17T17:14:10;2.50;58.50
7970;DHT22;4030;52.362;9.206;2022-12-17T17:16:36;2.40;58.60
7970;DHT22;4030;52.362;9.206;2022-12-17T17:19:03;2.10;58.30
7970;DHT22;4030;52.362;9.206;2022-12-17T17:21:34;2.60;57.20
7970;DHT22;4030;52.362;9.206;2022-12-17T17:31:31;2.30;57.60
7970;DHT22;4030;52.362;9.206;2022-12-17T17:33:57;1.90;58.00
7970;DHT22;4030;52.362;9.206;2022-12-17T17:36:27;2.00;58.10
7970;DHT22;4030;52.362;9.206;2022-12-17T17:38:55;2.20;57.60
7970;DHT22;4030;52.362;9.206;2022-12-17T17:41:24;1.90;56.30
7970;DHT22;4030;52.362;9.206;2022-12-17T17:43:53;1.80;56.30
7970;DHT22;4030;52.362;9.206;2022-12-17T17:46:19;1.90;58.60
7970;DHT22;4030;52.362;9.206;2022-12-17T17:48:47;2.00;57.40
7970;DHT22;4030;52.362;9.206;2022-12-17T17:51:18;1.70;57.30
7970;DHT22;4030;52.362;9.206;2022-12-17T17:53:47;1.70;56.00
7970;DHT22;4030;52.362;9.206;2022-12-17T17:56:16;1.40;58.30
7970;DHT22;4030;52.362;9.206;2022-12-17T17:58:46;1.60;58.50
7970;DHT22;4030;52.362;9.206;2022-12-17T18:01:16;1.70;58.60
7970;DHT22;4030;52.362;9.206;2022-12-17T18:03:44;1.70;58.40
7970;DHT22;4030;52.362;9.206;2022-12-17T18:06:11;1.50;59.10
7970;DHT22;4030;52.362;9.206;2022-12-17T18:08:39;1.20;60.40
7970;DHT22;4030;52.362;9.206;2022-12-17T18:11:08;1.50;60.50
7970;DHT22;4030;52.362;9.206;2022-12-17T18:16:29;1.50;58.70
7970;DHT22;4030;52.362;9.206;2022-12-17T18:19:08;1.20;58.70
7970;DHT22;4030;52.362;9.206;2022-12-17T18:26:45;1.20;58.90
7970;DHT22;4030;52.362;9.206;2022-12-17T18:29:24;1.20;57.20
7970;DHT22;4030;52.362;9.206;2022-12-17T18:34:22;-0.50;55.20
7970;DHT22;4030;52.362;9.206;2022-12-17T18:36:49;1.30;57.90
7970;DHT22;4030;52.362;9.206;2022-12-17T18:39:23;1.20;56.10
7970;DHT22;4030;52.362;9.206;2022-12-17T18:41:50;1.10;59.00
7970;DHT22;4030;52.362;9.206;2022-12-17T18:44:39;1.30;56.80
7970;DHT22;4030;52.362;9.206;2022-12-17T18:47:06;1.10;56.40
7970;DHT22;4030;52.362;9.206;2022-12-17T18:54:27;0.90;58.40
7970;DHT22;4030;52.362;9.206;2022-12-17T18:56:54;1.20;58.50
7970;DHT22;4030;52.362;9.206;2022-12-17T18:59:23;0.90;55.00
7970;DHT22;4030;52.362;9.206;2022-12-17T19:01:51;0.70;58.20
7970;DHT22;4030;52.362;9.206;2022-12-17T19:04:19;0.90;58.40
7970;DHT22;4030;52.362;9.206;2022-12-17T19:06:46;1.20;55.40
7970;DHT22;4030;52.362;9.206;2022-12-17T19:09:24;0.60;58.00
7970;DHT22;4030;52.362;9.206;2022-12-17T19:11:52;0.80;54.90
7970;DHT22;4030;52.362;9.206;2022-12-17T19:19:13;1.20;58.70
7970;DHT22;4030;52.362;9.206;2022-12-17T19:21:40;0.60;58.30
7970;DHT22;4030;52.362;9.206;2022-12-17T19:24:08;0.80;58.70
7970;DHT22;4030;52.362;9.206;2022-12-17T19:31:33;0.80;55.30
7970;DHT22;4030;52.362;9.206;2022-12-17T19:34:02;0.90;57.50
7970;DHT22;4030;52.362;9.206;2022-12-17T19:36:30;0.60;57.20
7970;DHT22;4030;52.362;9.206;2022-12-17T19:39:00;1.00;57.60
7970;DHT22;4030;52.362;9.206;2022-12-17T19:41:28;0.90;55.60
7970;DHT22;4030;52.362;9.206;2022-12-17T19:44:04;0.50;58.50
7970;DHT22;4030;52.362;9.206;2022-12-17T19:46:33;0.90;58.80
7970;DHT22;4030;52.362;9.206;2022-12-17T19:49:02;0.70;58.80
7970;DHT22;4030;52.362;9.206;2022-12-17T19:51:30;0.90;55.80
7970;DHT22;4030;52.362;9.206;2022-12-17T19:53:57;0.90;58.80
7970;DHT22;4030;52.362;9.206;2022-12-17T19:56:26;0.80;55.70
7970;DHT22;4030;52.362;9.206;2022-12-17T19:58:55;0.70;59.00
7970;DHT22;4030;52.362;9.206;2022-12-17T20:01:24;0.80;56.90
7970;DHT22;4030;52.362;9.206;2022-12-17T20:03:52;0.90;59.10
7970;DHT22;4030;52.362;9.206;2022-12-17T20:06:20;0.80;56.80
7970;DHT22;4030;52.362;9.206;2022-12-17T20:11:15;1.00;59.10
7970;DHT22;4030;52.362;9.206;2022-12-17T20:14:16;0.60;55.60
7970;DHT22;4030;52.362;9.206;2022-12-17T20:16:45;0.50;58.50
7970;DHT22;4030;52.362;9.206;2022-12-17T20:19:21;0.80;58.60
7970;DHT22;4030;52.362;9.206;2022-12-17T20:21:48;0.80;58.70
7970;DHT22;4030;52.362;9.206;2022-12-17T20:26:41;0.40;58.40
7970;DHT22;4030;52.362;9.206;2022-12-17T20:29:08;0.60;58.60
7970;DHT22;4030;52.362;9.206;2022-12-17T20:31:35;0.50;55.30
7970;DHT22;4030;52.362;9.206;2022-12-17T20:34:05;0.40;57.70
7970;DHT22;4030;52.362;9.206;2022-12-17T20:36:32;0.30;58.40
7970;DHT22;4030;52.362;9.206;2022-12-17T20:41:27;0.40;55.10
7970;DHT22;4030;52.362;9.206;2022-12-17T20:43:54;0.50;58.60
7970;DHT22;4030;52.362;9.206;2022-12-17T20:46:22;0.00;58.20
7970;DHT22;4030;52.362;9.206;2022-12-17T20:51:26;0.30;56.90
7970;DHT22;4030;52.362;9.206;2022-12-17T20:53:53;0.30;54.40
7970;DHT22;4030;52.362;9.206;2022-12-17T20:56:22;0.40;58.30
7970;DHT22;4030;52.362;9.206;2022-12-17T20:58:53;0.10;58.10
7970;DHT22;4030;52.362;9.206;2022-12-17T21:01:22;0.20;57.80
7970;DHT22;4030;52.362;9.206;2022-12-17T21:03:49;0.10;57.80
7970;DHT22;4030;52.362;9.206;2022-12-17T21:06:34;-0.10;57.50
7970;DHT22;4030;52.362;9.206;2022-12-17T21:09:03;-0.20;55.80
7970;DHT22;4030;52.362;9.206;2022-12-17T21:11:30;-0.20;57.60
7970;DHT22;4030;52.362;9.206;2022-12-17T21:13:57;0.20;57.90
7970;DHT22;4030;52.362;9.206;2022-12-17T21:16:28;0.00;53.70
7970;DHT22;4030;52.362;9.206;2022-12-17T21:18:56;0.20;57.70
7970;DHT22;4030;52.362;9.206;2022-12-17T21:21:26;-0.20;57.40
7970;DHT22;4030;52.362;9.206;2022-12-17T21:23:54;-0.10;53.60
7970;DHT22;4030;52.362;9.206;2022-12-17T21:26:22;-0.30;54.50
7970;DHT22;4030;52.362;9.206;2022-12-17T21:28:55;-0.40;57.10
7970;DHT22;4030;52.362;9.206;2022-12-17T21:31:23;0.10;57.50
7970;DHT22;4030;52.362;9.206;2022-12-17T21:33:53;0.00;57.60
7970;DHT22;4030;52.362;9.206;2022-12-17T21:36:20;-0.20;57.40
7970;DHT22;4030;52.362;9.206;2022-12-17T21:38:48;-0.10;57.50
7970;DHT22;4030;52.362;9.206;2022-12-17T21:41:18;-0.10;55.00
7970;DHT22;4030;52.362;9.206;2022-12-17T21:46:12;-0.20;57.70
7970;DHT22;4030;52.362;9.206;2022-12-17T21:48:40;-0.30;57.60
7970;DHT22;4030;52.362;9.206;2022-12-17T21:51:08;1.40;55.00
7970;DHT22;4030;52.362;9.206;2022-12-17T21:53:36;-0.20;57.50
7970;DHT22;4030;52.362;9.206;2022-12-17T21:56:08;-0.30;57.30
7970;DHT22;4030;52.362;9.206;2022-12-17T21:58:39;-0.30;53.30
7970;DHT22;4030;52.362;9.206;2022-12-17T22:01:20;-0.30;57.30
7970;DHT22;4030;52.362;9.206;2022-12-17T22:03:48;-0.60;57.00
7970;DHT22;4030;52.362;9.206;2022-12-17T22:06:16;-0.60;57.10